Flight Track Log - Related Links

Times and Time Zones

All times are in EDT time to prevent confusion due to time zone crossing. See the N556VP flight status page for this flight to view local times or setup timezone preferences in your user account.

Time Position Orientation Groundspeed Altitude Reporting Facility
EDT Latitude Longitude Course Direction KTS MPH feet Rate Location/Type
Fri 04:15:30 PM 29.5933 -95.6569 188° South 204 235 1,200  Level Houston Center
Fri 04:16:31 PM 29.5311 -95.6667 188° South 236 272 3,100 1,824 Climbing Houston Center
Fri 04:17:12 PM 29.5236 -95.7003 256° West 240 276 4,300 1,107 Climbing Houston Center
Fri 04:18:14 PM 29.5858 -95.7761 313° West 273 314 5,000 387 Climbing Houston Center
Fri 04:19:16 PM 29.6369 -95.8369 314° West 270 311 5,100 1,355 Climbing Houston Center
Fri 04:20:18 PM 29.6839 -95.8961 312° West 255 293 7,800 2,419 Climbing Houston Center
Fri 04:21:20 PM 29.7239 -95.9506 310° West 234 269 10,100 1,065 Climbing Houston Center
Fri 04:22:22 PM 29.7633 -96.0569 293° West 324 373 10,000 1,452 Descending Houston Center
Fri 04:23:24 PM 29.7922 -96.1422 291° West 290 334 13,100 2,177 Climbing Houston Center
Fri 04:24:26 PM 29.7900 -96.2386 269° West 313 360 14,500 1,500 Climbing Houston Center
Fri 04:25:28 PM 29.7708 -96.3467 258° West 340 391 16,200 1,790 Climbing Houston Center
Fri 04:26:30 PM 29.7531 -96.4558 259° West 348 400 18,200 1,403 Climbing Houston Center
Fri 04:27:32 PM 29.7347 -96.5667 259° West 353 406 19,100 871 Climbing Houston Center
Fri 04:28:34 PM 29.7489 -96.7089 277° West 382 440 20,000 435 Climbing Houston Center
Fri 04:29:36 PM 29.7928 -96.8236 294° West 393 452 20,000  Level Houston Center
Fri 04:30:38 PM 29.8392 -96.9328 296° West 385 443 20,000 -97 Level Houston Center
Fri 04:31:40 PM 29.8925 -97.0356 301° West 376 433 19,800 -532 Descending Houston Center
Fri 04:32:42 PM 29.9433 -97.1442 298° West 386 444 18,900 -960 Descending Houston Center
Fri 04:33:45 PM 30.0075 -97.2728 300° West 386 444 17,800 -912 Descending Houston Center
Fri 04:34:47 PM 30.0589 -97.3775 300° West 379 436 17,000 -871 Descending Houston Center
Fri 04:35:49 PM 30.1111 -97.4886 299° West 366 421 16,000 -968 Descending Houston Center
Fri 04:36:51 PM 30.1603 -97.5911 299° West 362 417 15,000 -1,065 Descending Houston Center
Fri 04:37:53 PM 30.2108 -97.6933 300° West 362 417 13,800 -1,355 Descending Houston Center
Fri 04:38:55 PM 30.2572 -97.7917 299° West 348 400 12,200 -1,645 Descending Houston Center
Fri 04:39:57 PM 30.3067 -97.8958 299° West 330 380 10,400 -1,694 Descending Houston Center
Fri 04:40:59 PM 30.3444 -97.9736 299° West 319 367 8,700 -1,597 Descending Houston Center
Fri 04:42:01 PM 30.3817 -98.0506 299° West 287 330 7,100 -1,548 Descending Houston Center

Login

Don't have an account? Register now (free) for customized features, flight alerts, and more!